sensor_id;sensor_type;location;lat;lon;timestamp;P1;durP1;ratioP1;P2;durP2;ratioP2
23714;SDS011;12036;50.858;4.472;2023-04-16T00:01:27;4.32;;;2.25;;
23714;SDS011;12036;50.858;4.472;2023-04-16T00:03:53;6.13;;;2.47;;
23714;SDS011;12036;50.858;4.472;2023-04-16T00:06:19;7.03;;;2.55;;
23714;SDS011;12036;50.858;4.472;2023-04-16T00:08:44;6.40;;;2.45;;
23714;SDS011;12036;50.858;4.472;2023-04-16T00:11:10;5.85;;;2.70;;
23714;SDS011;12036;50.858;4.472;2023-04-16T00:13:36;5.15;;;2.30;;
23714;SDS011;12036;50.858;4.472;2023-04-16T00:16:01;7.00;;;2.80;;
23714;SDS011;12036;50.858;4.472;2023-04-16T00:18:27;6.32;;;3.05;;
23714;SDS011;12036;50.858;4.472;2023-04-16T00:20:53;7.82;;;2.85;;
23714;SDS011;12036;50.858;4.472;2023-04-16T00:23:18;5.20;;;2.90;;
23714;SDS011;12036;50.858;4.472;2023-04-16T00:25:45;9.02;;;3.20;;
23714;SDS011;12036;50.858;4.472;2023-04-16T00:28:10;9.07;;;3.28;;
23714;SDS011;12036;50.858;4.472;2023-04-16T00:30:36;9.98;;;3.67;;
23714;SDS011;12036;50.858;4.472;2023-04-16T00:33:02;9.45;;;3.40;;
23714;SDS011;12036;50.858;4.472;2023-04-16T00:35:28;5.55;;;2.95;;
23714;SDS011;12036;50.858;4.472;2023-04-16T00:37:54;6.55;;;3.05;;
23714;SDS011;12036;50.858;4.472;2023-04-16T00:40:20;7.10;;;3.47;;
23714;SDS011;12036;50.858;4.472;2023-04-16T00:42:46;5.35;;;3.05;;
23714;SDS011;12036;50.858;4.472;2023-04-16T00:45:11;5.63;;;3.08;;
23714;SDS011;12036;50.858;4.472;2023-04-16T00:47:37;8.52;;;3.28;;
23714;SDS011;12036;50.858;4.472;2023-04-16T00:50:03;5.68;;;3.35;;
23714;SDS011;12036;50.858;4.472;2023-04-16T00:52:30;5.43;;;3.13;;
23714;SDS011;12036;50.858;4.472;2023-04-16T00:54:57;6.60;;;3.25;;
23714;SDS011;12036;50.858;4.472;2023-04-16T00:57:23;7.93;;;3.00;;
23714;SDS011;12036;50.858;4.472;2023-04-16T00:59:49;5.28;;;3.60;;
23714;SDS011;12036;50.858;4.472;2023-04-16T01:02:15;6.55;;;3.45;;
23714;SDS011;12036;50.858;4.472;2023-04-16T01:04:41;8.27;;;4.07;;
23714;SDS011;12036;50.858;4.472;2023-04-16T01:07:07;10.45;;;4.32;;
23714;SDS011;12036;50.858;4.472;2023-04-16T01:09:33;6.32;;;4.50;;
23714;SDS011;12036;50.858;4.472;2023-04-16T01:11:58;9.73;;;4.35;;
23714;SDS011;12036;50.858;4.472;2023-04-16T01:14:24;9.15;;;4.10;;
23714;SDS011;12036;50.858;4.472;2023-04-16T01:16:50;5.53;;;3.75;;
23714;SDS011;12036;50.858;4.472;2023-04-16T01:19:15;9.10;;;4.40;;
23714;SDS011;12036;50.858;4.472;2023-04-16T01:21:41;7.20;;;3.63;;
23714;SDS011;12036;50.858;4.472;2023-04-16T01:24:06;11.20;;;4.03;;
23714;SDS011;12036;50.858;4.472;2023-04-16T01:26:32;6.68;;;3.42;;
23714;SDS011;12036;50.858;4.472;2023-04-16T01:28:58;8.23;;;3.30;;
23714;SDS011;12036;50.858;4.472;2023-04-16T01:31:24;8.25;;;3.13;;
23714;SDS011;12036;50.858;4.472;2023-04-16T01:33:50;6.03;;;3.65;;
23714;SDS011;12036;50.858;4.472;2023-04-16T01:36:16;4.45;;;2.80;;
23714;SDS011;12036;50.858;4.472;2023-04-16T01:38:41;6.78;;;2.55;;
23714;SDS011;12036;50.858;4.472;2023-04-16T01:41:07;4.78;;;3.03;;
23714;SDS011;12036;50.858;4.472;2023-04-16T01:43:32;5.10;;;2.72;;
23714;SDS011;12036;50.858;4.472;2023-04-16T01:46:07;4.82;;;2.80;;
23714;SDS011;12036;50.858;4.472;2023-04-16T01:48:39;6.88;;;2.45;;
23714;SDS011;12036;50.858;4.472;2023-04-16T01:51:05;7.05;;;2.42;;
23714;SDS011;12036;50.858;4.472;2023-04-16T01:53:31;4.05;;;2.20;;
23714;SDS011;12036;50.858;4.472;2023-04-16T01:55:57;5.47;;;2.42;;
23714;SDS011;12036;50.858;4.472;2023-04-16T01:58:22;4.13;;;2.20;;
23714;SDS011;12036;50.858;4.472;2023-04-16T02:00:48;3.03;;;2.25;;
23714;SDS011;12036;50.858;4.472;2023-04-16T02:03:14;4.05;;;2.20;;
23714;SDS011;12036;50.858;4.472;2023-04-16T02:05:41;6.00;;;3.15;;
23714;SDS011;12036;50.858;4.472;2023-04-16T02:08:07;3.40;;;2.20;;
23714;SDS011;12036;50.858;4.472;2023-04-16T02:10:32;5.32;;;2.15;;
23714;SDS011;12036;50.858;4.472;2023-04-16T02:12:58;5.80;;;2.30;;
23714;SDS011;12036;50.858;4.472;2023-04-16T02:15:23;3.83;;;2.10;;
23714;SDS011;12036;50.858;4.472;2023-04-16T02:17:49;3.60;;;2.10;;
23714;SDS011;12036;50.858;4.472;2023-04-16T02:20:20;5.20;;;2.30;;
23714;SDS011;12036;50.858;4.472;2023-04-16T02:22:46;3.95;;;2.38;;
23714;SDS011;12036;50.858;4.472;2023-04-16T02:25:12;9.25;;;2.50;;
23714;SDS011;12036;50.858;4.472;2023-04-16T02:27:40;5.05;;;2.70;;
23714;SDS011;12036;50.858;4.472;2023-04-16T02:30:06;3.78;;;2.40;;
23714;SDS011;12036;50.858;4.472;2023-04-16T02:32:32;7.88;;;2.30;;
23714;SDS011;12036;50.858;4.472;2023-04-16T02:34:58;5.35;;;3.00;;
23714;SDS011;12036;50.858;4.472;2023-04-16T02:37:23;7.70;;;2.90;;
23714;SDS011;12036;50.858;4.472;2023-04-16T02:39:49;5.53;;;2.92;;
23714;SDS011;12036;50.858;4.472;2023-04-16T02:42:15;6.28;;;2.97;;
23714;SDS011;12036;50.858;4.472;2023-04-16T02:44:41;5.63;;;2.83;;
23714;SDS011;12036;50.858;4.472;2023-04-16T02:47:06;4.55;;;2.90;;
23714;SDS011;12036;50.858;4.472;2023-04-16T02:49:32;6.63;;;3.42;;
23714;SDS011;12036;50.858;4.472;2023-04-16T02:51:59;8.75;;;3.22;;
23714;SDS011;12036;50.858;4.472;2023-04-16T02:54:25;4.93;;;2.88;;
23714;SDS011;12036;50.858;4.472;2023-04-16T02:56:50;3.83;;;2.55;;
23714;SDS011;12036;50.858;4.472;2023-04-16T02:59:16;9.70;;;3.20;;
23714;SDS011;12036;50.858;4.472;2023-04-16T03:01:42;7.13;;;2.67;;
23714;SDS011;12036;50.858;4.472;2023-04-16T03:04:07;10.48;;;3.22;;
23714;SDS011;12036;50.858;4.472;2023-04-16T03:06:33;6.32;;;2.92;;
23714;SDS011;12036;50.858;4.472;2023-04-16T03:08:59;7.10;;;3.00;;
23714;SDS011;12036;50.858;4.472;2023-04-16T03:11:24;7.45;;;3.88;;
23714;SDS011;12036;50.858;4.472;2023-04-16T03:13:50;7.80;;;3.03;;
23714;SDS011;12036;50.858;4.472;2023-04-16T03:16:15;6.80;;;3.05;;
23714;SDS011;12036;50.858;4.472;2023-04-16T03:18:41;6.80;;;3.53;;
23714;SDS011;12036;50.858;4.472;2023-04-16T03:21:07;8.02;;;3.63;;
23714;SDS011;12036;50.858;4.472;2023-04-16T03:23:32;7.70;;;3.58;;
23714;SDS011;12036;50.858;4.472;2023-04-16T03:25:59;10.73;;;4.35;;
23714;SDS011;12036;50.858;4.472;2023-04-16T03:28:25;5.70;;;3.72;;
23714;SDS011;12036;50.858;4.472;2023-04-16T03:30:51;6.20;;;3.83;;
23714;SDS011;12036;50.858;4.472;2023-04-16T03:33:17;8.35;;;4.10;;
23714;SDS011;12036;50.858;4.472;2023-04-16T03:35:44;5.70;;;3.90;;
23714;SDS011;12036;50.858;4.472;2023-04-16T03:38:09;5.40;;;4.05;;
23714;SDS011;12036;50.858;4.472;2023-04-16T03:40:36;8.40;;;4.35;;
23714;SDS011;12036;50.858;4.472;2023-04-16T03:43:01;9.20;;;5.07;;
23714;SDS011;12036;50.858;4.472;2023-04-16T03:45:27;8.68;;;4.32;;
23714;SDS011;12036;50.858;4.472;2023-04-16T03:47:52;7.13;;;4.35;;
23714;SDS011;12036;50.858;4.472;2023-04-16T03:50:18;16.63;;;4.85;;
23714;SDS011;12036;50.858;4.472;2023-04-16T03:52:44;6.43;;;4.15;;
23714;SDS011;12036;50.858;4.472;2023-04-16T03:55:11;9.13;;;3.80;;
23714;SDS011;12036;50.858;4.472;2023-04-16T03:57:37;14.68;;;4.10;;
23714;SDS011;12036;50.858;4.472;2023-04-16T04:00:03;5.63;;;3.58;;
23714;SDS011;12036;50.858;4.472;2023-04-16T04:02:29;6.78;;;3.55;;
23714;SDS011;12036;50.858;4.472;2023-04-16T04:04:55;8.90;;;3.47;;
23714;SDS011;12036;50.858;4.472;2023-04-16T04:07:20;4.97;;;3.13;;
23714;SDS011;12036;50.858;4.472;2023-04-16T04:09:46;10.18;;;3.00;;
23714;SDS011;12036;50.858;4.472;2023-04-16T04:12:12;9.02;;;3.17;;
23714;SDS011;12036;50.858;4.472;2023-04-16T04:14:37;7.80;;;3.45;;
23714;SDS011;12036;50.858;4.472;2023-04-16T04:17:07;4.78;;;3.40;;
23714;SDS011;12036;50.858;4.472;2023-04-16T04:19:34;3.92;;;2.90;;
23714;SDS011;12036;50.858;4.472;2023-04-16T04:21:59;6.57;;;3.08;;
23714;SDS011;12036;50.858;4.472;2023-04-16T04:24:25;10.15;;;3.95;;
23714;SDS011;12036;50.858;4.472;2023-04-16T04:26:51;6.90;;;3.60;;
23714;SDS011;12036;50.858;4.472;2023-04-16T04:29:16;8.65;;;4.22;;
23714;SDS011;12036;50.858;4.472;2023-04-16T04:31:42;8.32;;;3.47;;
23714;SDS011;12036;50.858;4.472;2023-04-16T04:34:07;8.52;;;3.92;;
23714;SDS011;12036;50.858;4.472;2023-04-16T04:36:33;5.18;;;3.42;;
23714;SDS011;12036;50.858;4.472;2023-04-16T04:38:59;7.30;;;4.40;;
23714;SDS011;12036;50.858;4.472;2023-04-16T04:41:24;8.88;;;4.35;;
23714;SDS011;12036;50.858;4.472;2023-04-16T04:43:51;6.47;;;4.25;;
23714;SDS011;12036;50.858;4.472;2023-04-16T04:46:16;9.77;;;5.00;;
23714;SDS011;12036;50.858;4.472;2023-04-16T04:48:42;8.57;;;4.88;;
23714;SDS011;12036;50.858;4.472;2023-04-16T04:51:07;7.38;;;4.82;;
23714;SDS011;12036;50.858;4.472;2023-04-16T04:53:33;15.00;;;5.05;;
23714;SDS011;12036;50.858;4.472;2023-04-16T04:55:59;11.75;;;5.47;;
23714;SDS011;12036;50.858;4.472;2023-04-16T04:58:24;10.93;;;5.18;;
23714;SDS011;12036;50.858;4.472;2023-04-16T05:00:50;11.25;;;5.38;;
23714;SDS011;12036;50.858;4.472;2023-04-16T05:03:18;9.07;;;5.80;;
23714;SDS011;12036;50.858;4.472;2023-04-16T05:05:45;11.55;;;5.60;;
23714;SDS011;12036;50.858;4.472;2023-04-16T05:08:11;7.82;;;5.80;;
23714;SDS011;12036;50.858;4.472;2023-04-16T05:10:36;9.27;;;5.97;;
23714;SDS011;12036;50.858;4.472;2023-04-16T05:13:02;7.75;;;5.30;;
23714;SDS011;12036;50.858;4.472;2023-04-16T05:15:28;13.15;;;5.15;;
23714;SDS011;12036;50.858;4.472;2023-04-16T05:17:53;8.43;;;4.50;;
23714;SDS011;12036;50.858;4.472;2023-04-16T05:20:20;8.50;;;3.97;;
23714;SDS011;12036;50.858;4.472;2023-04-16T05:22:48;8.93;;;4.10;;
23714;SDS011;12036;50.858;4.472;2023-04-16T05:25:16;10.93;;;4.28;;
23714;SDS011;12036;50.858;4.472;2023-04-16T05:27:42;7.80;;;3.75;;
23714;SDS011;12036;50.858;4.472;2023-04-16T05:30:08;9.63;;;3.63;;
23714;SDS011;12036;50.858;4.472;2023-04-16T05:32:34;8.73;;;3.33;;
23714;SDS011;12036;50.858;4.472;2023-04-16T05:35:00;6.07;;;3.53;;
23714;SDS011;12036;50.858;4.472;2023-04-16T05:37:26;6.90;;;3.25;;
23714;SDS011;12036;50.858;4.472;2023-04-16T05:39:52;7.93;;;3.40;;
23714;SDS011;12036;50.858;4.472;2023-04-16T05:42:18;9.02;;;3.47;;
23714;SDS011;12036;50.858;4.472;2023-04-16T05:44:43;4.80;;;2.67;;
23714;SDS011;12036;50.858;4.472;2023-04-16T05:47:09;5.97;;;2.95;;
23714;SDS011;12036;50.858;4.472;2023-04-16T05:49:35;7.00;;;2.85;;
23714;SDS011;12036;50.858;4.472;2023-04-16T05:52:03;6.53;;;2.42;;
23714;SDS011;12036;50.858;4.472;2023-04-16T05:54:30;4.50;;;2.88;;
23714;SDS011;12036;50.858;4.472;2023-04-16T05:56:55;7.95;;;2.67;;
23714;SDS011;12036;50.858;4.472;2023-04-16T05:59:21;11.07;;;2.60;;
23714;SDS011;12036;50.858;4.472;2023-04-16T06:01:47;8.55;;;2.97;;
23714;SDS011;12036;50.858;4.472;2023-04-16T06:04:12;5.53;;;3.05;;
23714;SDS011;12036;50.858;4.472;2023-04-16T06:06:38;7.20;;;2.80;;
23714;SDS011;12036;50.858;4.472;2023-04-16T06:09:04;11.85;;;2.97;;
23714;SDS011;12036;50.858;4.472;2023-04-16T06:11:30;6.40;;;2.75;;
23714;SDS011;12036;50.858;4.472;2023-04-16T06:13:55;8.40;;;2.85;;
23714;SDS011;12036;50.858;4.472;2023-04-16T06:16:21;6.63;;;2.90;;
23714;SDS011;12036;50.858;4.472;2023-04-16T06:18:46;12.70;;;3.15;;
23714;SDS011;12036;50.858;4.472;2023-04-16T06:21:12;11.32;;;3.33;;
23714;SDS011;12036;50.858;4.472;2023-04-16T06:23:38;8.77;;;3.55;;
23714;SDS011;12036;50.858;4.472;2023-04-16T06:26:04;6.95;;;3.40;;
23714;SDS011;12036;50.858;4.472;2023-04-16T06:28:30;8.18;;;3.20;;
23714;SDS011;12036;50.858;4.472;2023-04-16T06:30:55;7.40;;;3.97;;
23714;SDS011;12036;50.858;4.472;2023-04-16T06:33:21;10.18;;;3.88;;
23714;SDS011;12036;50.858;4.472;2023-04-16T06:35:47;7.00;;;4.47;;
23714;SDS011;12036;50.858;4.472;2023-04-16T06:38:13;7.65;;;4.10;;
23714;SDS011;12036;50.858;4.472;2023-04-16T06:40:39;8.90;;;4.32;;
23714;SDS011;12036;50.858;4.472;2023-04-16T06:43:05;7.43;;;3.95;;
23714;SDS011;12036;50.858;4.472;2023-04-16T06:45:31;9.18;;;4.47;;
23714;SDS011;12036;50.858;4.472;2023-04-16T06:47:56;12.70;;;3.92;;
23714;SDS011;12036;50.858;4.472;2023-04-16T06:50:27;10.98;;;4.10;;
23714;SDS011;12036;50.858;4.472;2023-04-16T06:52:55;9.27;;;4.05;;
23714;SDS011;12036;50.858;4.472;2023-04-16T06:55:21;8.75;;;3.97;;
23714;SDS011;12036;50.858;4.472;2023-04-16T06:57:47;9.55;;;3.60;;
23714;SDS011;12036;50.858;4.472;2023-04-16T07:00:12;7.55;;;3.85;;
23714;SDS011;12036;50.858;4.472;2023-04-16T07:02:38;7.13;;;3.83;;
23714;SDS011;12036;50.858;4.472;2023-04-16T07:05:04;10.32;;;4.07;;
23714;SDS011;12036;50.858;4.472;2023-04-16T07:07:30;8.50;;;4.45;;
23714;SDS011;12036;50.858;4.472;2023-04-16T07:09:57;11.85;;;4.53;;
23714;SDS011;12036;50.858;4.472;2023-04-16T07:12:23;9.07;;;4.68;;
23714;SDS011;12036;50.858;4.472;2023-04-16T07:14:49;11.70;;;4.80;;
23714;SDS011;12036;50.858;4.472;2023-04-16T07:17:15;9.68;;;5.00;;
23714;SDS011;12036;50.858;4.472;2023-04-16T07:19:40;9.63;;;5.20;;
23714;SDS011;12036;50.858;4.472;2023-04-16T07:22:06;11.95;;;5.80;;
23714;SDS011;12036;50.858;4.472;2023-04-16T07:24:32;12.80;;;5.63;;
23714;SDS011;12036;50.858;4.472;2023-04-16T07:26:57;11.88;;;5.10;;
23714;SDS011;12036;50.858;4.472;2023-04-16T07:29:23;9.68;;;5.72;;
23714;SDS011;12036;50.858;4.472;2023-04-16T07:31:49;10.82;;;6.47;;
23714;SDS011;12036;50.858;4.472;2023-04-16T07:34:15;13.70;;;5.88;;
23714;SDS011;12036;50.858;4.472;2023-04-16T07:36:41;16.60;;;6.95;;
23714;SDS011;12036;50.858;4.472;2023-04-16T07:39:06;16.05;;;6.72;;
23714;SDS011;12036;50.858;4.472;2023-04-16T07:41:32;16.70;;;6.47;;
23714;SDS011;12036;50.858;4.472;2023-04-16T07:43:58;16.05;;;6.47;;
23714;SDS011;12036;50.858;4.472;2023-04-16T07:46:23;13.32;;;6.53;;
23714;SDS011;12036;50.858;4.472;2023-04-16T07:48:49;11.70;;;6.43;;
23714;SDS011;12036;50.858;4.472;2023-04-16T07:51:15;16.55;;;7.18;;
23714;SDS011;12036;50.858;4.472;2023-04-16T07:53:41;19.70;;;7.80;;
23714;SDS011;12036;50.858;4.472;2023-04-16T07:56:07;12.65;;;6.47;;
23714;SDS011;12036;50.858;4.472;2023-04-16T07:58:33;13.52;;;6.35;;
23714;SDS011;12036;50.858;4.472;2023-04-16T08:00:59;14.35;;;6.63;;
23714;SDS011;12036;50.858;4.472;2023-04-16T08:03:25;14.43;;;6.00;;
23714;SDS011;12036;50.858;4.472;2023-04-16T08:05:51;13.35;;;6.00;;
23714;SDS011;12036;50.858;4.472;2023-04-16T08:08:16;13.38;;;5.85;;
23714;SDS011;12036;50.858;4.472;2023-04-16T08:10:42;14.27;;;6.43;;
23714;SDS011;12036;50.858;4.472;2023-04-16T08:13:08;12.43;;;6.63;;
23714;SDS011;12036;50.858;4.472;2023-04-16T08:15:33;13.48;;;6.90;;
23714;SDS011;12036;50.858;4.472;2023-04-16T08:17:59;16.42;;;6.82;;
23714;SDS011;12036;50.858;4.472;2023-04-16T08:20:25;11.93;;;7.10;;
23714;SDS011;12036;50.858;4.472;2023-04-16T08:22:52;17.88;;;7.28;;
23714;SDS011;12036;50.858;4.472;2023-04-16T08:25:18;18.55;;;7.20;;
23714;SDS011;12036;50.858;4.472;2023-04-16T08:27:44;15.82;;;7.05;;
23714;SDS011;12036;50.858;4.472;2023-04-16T08:30:10;14.57;;;7.35;;
23714;SDS011;12036;50.858;4.472;2023-04-16T08:32:36;22.75;;;7.75;;
23714;SDS011;12036;50.858;4.472;2023-04-16T08:35:02;14.45;;;7.28;;
23714;SDS011;12036;50.858;4.472;2023-04-16T08:37:27;12.02;;;6.70;;
23714;SDS011;12036;50.858;4.472;2023-04-16T08:39:53;12.57;;;7.22;;
23714;SDS011;12036;50.858;4.472;2023-04-16T08:42:52;12.25;;;6.47;;
23714;SDS011;12036;50.858;4.472;2023-04-16T08:45:17;12.70;;;7.60;;
23714;SDS011;12036;50.858;4.472;2023-04-16T08:47:52;16.55;;;8.18;;
23714;SDS011;12036;50.858;4.472;2023-04-16T08:50:24;19.27;;;7.80;;
23714;SDS011;12036;50.858;4.472;2023-04-16T08:52:51;19.15;;;7.55;;
23714;SDS011;12036;50.858;4.472;2023-04-16T08:55:35;16.95;;;8.10;;
23714;SDS011;12036;50.858;4.472;2023-04-16T08:58:04;16.48;;;8.35;;
23714;SDS011;12036;50.858;4.472;2023-04-16T09:00:37;21.77;;;8.13;;
23714;SDS011;12036;50.858;4.472;2023-04-16T09:03:05;18.50;;;8.25;;
23714;SDS011;12036;50.858;4.472;2023-04-16T09:05:32;16.80;;;7.82;;
23714;SDS011;12036;50.858;4.472;2023-04-16T09:07:58;19.35;;;7.88;;
23714;SDS011;12036;50.858;4.472;2023-04-16T09:10:24;19.00;;;8.32;;
23714;SDS011;12036;50.858;4.472;2023-04-16T09:12:51;21.25;;;8.68;;
23714;SDS011;12036;50.858;4.472;2023-04-16T09:15:19;14.65;;;7.03;;
23714;SDS011;12036;50.858;4.472;2023-04-16T09:17:45;20.45;;;8.70;;
23714;SDS011;12036;50.858;4.472;2023-04-16T09:20:11;16.42;;;7.38;;
23714;SDS011;12036;50.858;4.472;2023-04-16T09:22:37;20.67;;;8.25;;
23714;SDS011;12036;50.858;4.472;2023-04-16T09:25:04;19.55;;;9.18;;
23714;SDS011;12036;50.858;4.472;2023-04-16T09:27:31;18.42;;;8.45;;
23714;SDS011;12036;50.858;4.472;2023-04-16T09:29:56;21.73;;;9.25;;
23714;SDS011;12036;50.858;4.472;2023-04-16T09:32:26;17.13;;;8.65;;
23714;SDS011;12036;50.858;4.472;2023-04-16T09:34:53;16.27;;;8.43;;
23714;SDS011;12036;50.858;4.472;2023-04-16T09:37:23;14.05;;;8.80;;
23714;SDS011;12036;50.858;4.472;2023-04-16T09:40:00;18.10;;;8.23;;
23714;SDS011;12036;50.858;4.472;2023-04-16T09:44:57;14.30;;;8.38;;
23714;SDS011;12036;50.858;4.472;2023-04-16T09:47:24;19.85;;;9.18;;
23714;SDS011;12036;50.858;4.472;2023-04-16T09:49:51;18.80;;;8.73;;
23714;SDS011;12036;50.858;4.472;2023-04-16T09:52:17;20.52;;;9.73;;
23714;SDS011;12036;50.858;4.472;2023-04-16T09:54:48;20.23;;;9.57;;
23714;SDS011;12036;50.858;4.472;2023-04-16T09:57:18;14.23;;;9.00;;
23714;SDS011;12036;50.858;4.472;2023-04-16T09:59:45;16.58;;;8.65;;
23714;SDS011;12036;50.858;4.472;2023-04-16T10:02:11;20.77;;;8.90;;
23714;SDS011;12036;50.858;4.472;2023-04-16T10:04:55;17.15;;;7.75;;
23714;SDS011;12036;50.858;4.472;2023-04-16T10:07:21;16.90;;;8.52;;
23714;SDS011;12036;50.858;4.472;2023-04-16T10:09:51;14.85;;;7.90;;
23714;SDS011;12036;50.858;4.472;2023-04-16T10:12:17;21.15;;;7.85;;
23714;SDS011;12036;50.858;4.472;2023-04-16T10:14:44;18.25;;;8.85;;
23714;SDS011;12036;50.858;4.472;2023-04-16T10:17:09;21.65;;;8.07;;
23714;SDS011;12036;50.858;4.472;2023-04-16T10:19:35;14.60;;;8.25;;
23714;SDS011;12036;50.858;4.472;2023-04-16T10:22:02;14.35;;;7.30;;
23714;SDS011;12036;50.858;4.472;2023-04-16T10:24:28;13.65;;;7.53;;
23714;SDS011;12036;50.858;4.472;2023-04-16T10:26:55;13.52;;;6.95;;
23714;SDS011;12036;50.858;4.472;2023-04-16T10:29:22;13.40;;;7.75;;
23714;SDS011;12036;50.858;4.472;2023-04-16T10:31:49;14.43;;;7.18;;
23714;SDS011;12036;50.858;4.472;2023-04-16T10:34:15;14.30;;;7.05;;
23714;SDS011;12036;50.858;4.472;2023-04-16T10:36:45;18.30;;;6.85;;
23714;SDS011;12036;50.858;4.472;2023-04-16T10:39:14;14.20;;;7.35;;
23714;SDS011;12036;50.858;4.472;2023-04-16T10:41:44;16.30;;;7.70;;
23714;SDS011;12036;50.858;4.472;2023-04-16T10:44:10;16.17;;;7.40;;
23714;SDS011;12036;50.858;4.472;2023-04-16T10:46:39;16.67;;;7.45;;
23714;SDS011;12036;50.858;4.472;2023-04-16T10:49:16;17.33;;;7.55;;
23714;SDS011;12036;50.858;4.472;2023-04-16T10:51:52;17.55;;;8.02;;
23714;SDS011;12036;50.858;4.472;2023-04-16T10:56:51;19.15;;;7.35;;
23714;SDS011;12036;50.858;4.472;2023-04-16T10:59:19;14.43;;;7.40;;
23714;SDS011;12036;50.858;4.472;2023-04-16T11:01:50;12.65;;;7.65;;
23714;SDS011;12036;50.858;4.472;2023-04-16T11:09:56;20.67;;;8.80;;
23714;SDS011;12036;50.858;4.472;2023-04-16T11:15:13;15.18;;;7.05;;
23714;SDS011;12036;50.858;4.472;2023-04-16T11:17:47;22.42;;;9.82;;
23714;SDS011;12036;50.858;4.472;2023-04-16T11:22:44;16.92;;;9.40;;
23714;SDS011;12036;50.858;4.472;2023-04-16T11:25:10;25.75;;;9.73;;
23714;SDS011;12036;50.858;4.472;2023-04-16T11:27:36;18.60;;;10.20;;
23714;SDS011;12036;50.858;4.472;2023-04-16T11:32:36;19.05;;;8.45;;
23714;SDS011;12036;50.858;4.472;2023-04-16T11:35:12;24.23;;;9.32;;
23714;SDS011;12036;50.858;4.472;2023-04-16T11:37:40;24.40;;;10.57;;
23714;SDS011;12036;50.858;4.472;2023-04-16T11:40:06;20.55;;;10.00;;
23714;SDS011;12036;50.858;4.472;2023-04-16T11:42:33;18.10;;;8.13;;
23714;SDS011;12036;50.858;4.472;2023-04-16T11:45:01;30.88;;;14.50;;
23714;SDS011;12036;50.858;4.472;2023-04-16T11:47:28;20.92;;;9.63;;
23714;SDS011;12036;50.858;4.472;2023-04-16T11:49:55;22.80;;;8.90;;
23714;SDS011;12036;50.858;4.472;2023-04-16T11:52:25;24.88;;;10.88;;
23714;SDS011;12036;50.858;4.472;2023-04-16T11:54:57;18.70;;;9.50;;
23714;SDS011;12036;50.858;4.472;2023-04-16T11:57:30;23.98;;;13.40;;
23714;SDS011;12036;50.858;4.472;2023-04-16T11:59:56;19.67;;;10.13;;
23714;SDS011;12036;50.858;4.472;2023-04-16T12:02:40;19.60;;;9.63;;
23714;SDS011;12036;50.858;4.472;2023-04-16T12:07:53;19.83;;;9.68;;
23714;SDS011;12036;50.858;4.472;2023-04-16T12:10:19;18.73;;;10.95;;
23714;SDS011;12036;50.858;4.472;2023-04-16T12:12:45;21.35;;;10.73;;
23714;SDS011;12036;50.858;4.472;2023-04-16T12:15:10;22.25;;;9.45;;
23714;SDS011;12036;50.858;4.472;2023-04-16T12:17:36;20.20;;;10.23;;
23714;SDS011;12036;50.858;4.472;2023-04-16T12:20:03;20.98;;;8.52;;
23714;SDS011;12036;50.858;4.472;2023-04-16T12:22:43;18.08;;;8.80;;
23714;SDS011;12036;50.858;4.472;2023-04-16T12:25:10;18.52;;;8.85;;
23714;SDS011;12036;50.858;4.472;2023-04-16T12:27:44;15.95;;;8.27;;
23714;SDS011;12036;50.858;4.472;2023-04-16T12:30:17;16.77;;;9.88;;
23714;SDS011;12036;50.858;4.472;2023-04-16T12:32:46;19.38;;;9.15;;
23714;SDS011;12036;50.858;4.472;2023-04-16T12:35:12;22.85;;;11.20;;
23714;SDS011;12036;50.858;4.472;2023-04-16T12:37:52;14.23;;;9.75;;
23714;SDS011;12036;50.858;4.472;2023-04-16T12:40:18;20.92;;;10.32;;
23714;SDS011;12036;50.858;4.472;2023-04-16T12:42:44;21.75;;;11.43;;
23714;SDS011;12036;50.858;4.472;2023-04-16T12:45:10;19.85;;;10.57;;
23714;SDS011;12036;50.858;4.472;2023-04-16T12:47:36;25.70;;;10.88;;
23714;SDS011;12036;50.858;4.472;2023-04-16T12:50:01;27.25;;;13.70;;
23714;SDS011;12036;50.858;4.472;2023-04-16T12:52:27;23.00;;;10.43;;
23714;SDS011;12036;50.858;4.472;2023-04-16T12:54:53;20.77;;;10.80;;
23714;SDS011;12036;50.858;4.472;2023-04-16T12:57:19;19.67;;;10.77;;
23714;SDS011;12036;50.858;4.472;2023-04-16T12:59:44;35.03;;;18.67;;
23714;SDS011;12036;50.858;4.472;2023-04-16T13:02:11;27.63;;;13.25;;
23714;SDS011;12036;50.858;4.472;2023-04-16T13:04:37;40.95;;;13.80;;
23714;SDS011;12036;50.858;4.472;2023-04-16T13:07:02;18.35;;;10.23;;
23714;SDS011;12036;50.858;4.472;2023-04-16T13:09:28;16.05;;;8.73;;
23714;SDS011;12036;50.858;4.472;2023-04-16T13:11:53;16.33;;;9.35;;
23714;SDS011;12036;50.858;4.472;2023-04-16T13:14:19;17.70;;;9.18;;
23714;SDS011;12036;50.858;4.472;2023-04-16T13:16:45;20.23;;;11.32;;
23714;SDS011;12036;50.858;4.472;2023-04-16T13:19:11;23.30;;;12.93;;
23714;SDS011;12036;50.858;4.472;2023-04-16T13:21:36;19.42;;;11.57;;
23714;SDS011;12036;50.858;4.472;2023-04-16T13:24:02;21.98;;;11.45;;
23714;SDS011;12036;50.858;4.472;2023-04-16T13:26:28;21.40;;;10.20;;
23714;SDS011;12036;50.858;4.472;2023-04-16T13:28:53;17.55;;;9.80;;
23714;SDS011;12036;50.858;4.472;2023-04-16T13:31:19;23.92;;;11.98;;
23714;SDS011;12036;50.858;4.472;2023-04-16T13:33:46;30.45;;;11.80;;
23714;SDS011;12036;50.858;4.472;2023-04-16T13:36:12;23.08;;;11.07;;
23714;SDS011;12036;50.858;4.472;2023-04-16T13:38:37;21.67;;;12.02;;
23714;SDS011;12036;50.858;4.472;2023-04-16T13:41:03;17.42;;;11.27;;
23714;SDS011;12036;50.858;4.472;2023-04-16T13:43:30;25.42;;;12.57;;
23714;SDS011;12036;50.858;4.472;2023-04-16T13:45:56;26.40;;;14.30;;
23714;SDS011;12036;50.858;4.472;2023-04-16T13:48:21;22.92;;;13.07;;
23714;SDS011;12036;50.858;4.472;2023-04-16T13:50:47;24.50;;;13.88;;
23714;SDS011;12036;50.858;4.472;2023-04-16T13:53:13;24.63;;;13.02;;
23714;SDS011;12036;50.858;4.472;2023-04-16T13:55:38;26.55;;;16.20;;
23714;SDS011;12036;50.858;4.472;2023-04-16T13:58:04;26.10;;;16.10;;
23714;SDS011;12036;50.858;4.472;2023-04-16T14:00:31;20.85;;;13.95;;
23714;SDS011;12036;50.858;4.472;2023-04-16T14:02:56;25.00;;;16.58;;
23714;SDS011;12036;50.858;4.472;2023-04-16T14:05:22;22.95;;;15.27;;
23714;SDS011;12036;50.858;4.472;2023-04-16T14:07:48;25.17;;;15.20;;
23714;SDS011;12036;50.858;4.472;2023-04-16T14:10:14;25.10;;;13.45;;
23714;SDS011;12036;50.858;4.472;2023-04-16T14:12:39;18.42;;;12.82;;
23714;SDS011;12036;50.858;4.472;2023-04-16T14:15:06;26.23;;;13.75;;
23714;SDS011;12036;50.858;4.472;2023-04-16T14:17:33;22.45;;;13.20;;
23714;SDS011;12036;50.858;4.472;2023-04-16T14:20:01;20.65;;;13.60;;
23714;SDS011;12036;50.858;4.472;2023-04-16T14:22:30;23.90;;;13.82;;
23714;SDS011;12036;50.858;4.472;2023-04-16T14:24:56;21.58;;;12.10;;
23714;SDS011;12036;50.858;4.472;2023-04-16T14:27:23;18.88;;;11.88;;
23714;SDS011;12036;50.858;4.472;2023-04-16T14:29:48;23.40;;;12.77;;
23714;SDS011;12036;50.858;4.472;2023-04-16T14:32:14;18.50;;;12.40;;
23714;SDS011;12036;50.858;4.472;2023-04-16T14:34:40;23.40;;;13.75;;
23714;SDS011;12036;50.858;4.472;2023-04-16T14:37:06;18.40;;;12.13;;
23714;SDS011;12036;50.858;4.472;2023-04-16T14:39:31;22.48;;;14.15;;
23714;SDS011;12036;50.858;4.472;2023-04-16T14:41:58;24.38;;;13.85;;
23714;SDS011;12036;50.858;4.472;2023-04-16T14:44:24;25.13;;;13.07;;
23714;SDS011;12036;50.858;4.472;2023-04-16T14:46:50;17.30;;;13.90;;
23714;SDS011;12036;50.858;4.472;2023-04-16T14:49:15;18.27;;;14.18;;
23714;SDS011;12036;50.858;4.472;2023-04-16T14:51:41;23.10;;;15.05;;
23714;SDS011;12036;50.858;4.472;2023-04-16T14:54:09;19.05;;;12.30;;
23714;SDS011;12036;50.858;4.472;2023-04-16T14:56:35;23.38;;;14.85;;